createdAt,value
2023-03-03T00:00:55.970Z,63.60
2023-03-03T00:03:25.652Z,64.80
2023-03-03T00:05:54.314Z,64.20
2023-03-03T00:08:23.503Z,63.40
2023-03-03T00:10:52.988Z,61.80
2023-03-03T00:13:23.006Z,63.60
2023-03-03T00:15:52.001Z,62.70
2023-03-03T00:18:26.560Z,63.10
2023-03-03T00:20:56.227Z,62.70
2023-03-03T00:23:30.841Z,62.30
2023-03-03T00:26:00.742Z,62.60
2023-03-03T00:28:31.980Z,61.50
2023-03-03T00:31:01.340Z,62.50
2023-03-03T00:33:33.461Z,62.60
2023-03-03T00:36:23.376Z,61.60
2023-03-03T00:38:51.382Z,63.10
2023-03-03T00:41:24.812Z,62.60
2023-03-03T00:43:53.533Z,61.50
2023-03-03T00:46:23.894Z,61.80
2023-03-03T00:48:52.744Z,61.50
2023-03-03T00:51:29.173Z,61.80
2023-03-03T00:53:57.240Z,61.30
2023-03-03T00:56:27.184Z,61.50
2023-03-03T00:58:55.218Z,61.60
2023-03-03T01:01:25.465Z,61.80
2023-03-03T01:03:54.463Z,61.20
2023-03-03T01:06:22.331Z,61.20
2023-03-03T01:08:50.295Z,61.70
2023-03-03T01:11:22.836Z,61.60
2023-03-03T01:13:53.652Z,61.70
2023-03-03T01:16:22.369Z,61.40
2023-03-03T01:18:51.714Z,62.10
2023-03-03T01:21:19.546Z,62.20
2023-03-03T01:23:47.575Z,62.60
2023-03-03T01:26:15.581Z,61.60
2023-03-03T01:28:43.375Z,62.30
2023-03-03T01:31:12.629Z,62.00
2023-03-03T01:33:40.441Z,62.50
2023-03-03T01:36:09.323Z,62.90
2023-03-03T01:38:37.907Z,62.20
2023-03-03T01:41:06.213Z,62.00
2023-03-03T01:43:35.196Z,62.30
2023-03-03T01:46:42.822Z,60.60
2023-03-03T01:49:16.595Z,62.80
2023-03-03T01:51:49.577Z,62.90
2023-03-03T01:54:22.630Z,62.10
2023-03-03T01:56:51.384Z,61.80
2023-03-03T01:59:22.906Z,62.40
2023-03-03T02:01:51.594Z,61.70
2023-03-03T02:04:21.952Z,61.40
2023-03-03T02:06:55.262Z,61.30
2023-03-03T02:09:30.507Z,63.20
2023-03-03T02:12:01.097Z,62.70
2023-03-03T02:14:28.938Z,62.70
2023-03-03T02:16:56.792Z,61.40
2023-03-03T02:19:36.439Z,62.30
2023-03-03T02:22:04.706Z,61.10
2023-03-03T02:24:39.970Z,62.70
2023-03-03T02:27:09.186Z,62.70
2023-03-03T02:29:37.538Z,63.10
2023-03-03T02:32:07.244Z,63.10
2023-03-03T02:34:47.006Z,62.40
2023-03-03T02:37:14.829Z,63.00
2023-03-03T02:39:42.794Z,62.30
2023-03-03T02:42:18.029Z,62.00
2023-03-03T02:44:51.652Z,62.20
2023-03-03T02:47:19.506Z,62.60
2023-03-03T02:49:47.425Z,62.20
2023-03-03T02:52:17.998Z,61.60
2023-03-03T02:54:47.426Z,60.50
2023-03-03T02:57:16.605Z,62.00
2023-03-03T02:59:44.377Z,61.90
2023-03-03T03:02:15.035Z,63.20
2023-03-03T03:04:43.211Z,62.80
2023-03-03T03:07:16.359Z,62.00
2023-03-03T03:09:44.538Z,61.70
2023-03-03T03:12:12.341Z,61.90
2023-03-03T03:14:41.498Z,62.70
2023-03-03T03:17:11.540Z,62.10
2023-03-03T03:19:39.773Z,62.80
2023-03-03T03:22:08.014Z,62.10
2023-03-03T03:24:36.923Z,62.60
2023-03-03T03:27:08.703Z,62.00
2023-03-03T03:29:36.660Z,61.10
2023-03-03T03:32:06.875Z,62.20
2023-03-03T03:34:35.334Z,61.90
2023-03-03T03:37:04.758Z,62.70
2023-03-03T03:39:32.719Z,62.70
2023-03-03T03:42:00.691Z,63.20
2023-03-03T03:44:28.509Z,63.50
2023-03-03T03:46:56.372Z,63.30
2023-03-03T03:49:25.708Z,63.20
2023-03-03T03:51:55.636Z,63.00
2023-03-03T03:54:27.076Z,62.70
2023-03-03T03:56:55.439Z,62.70
2023-03-03T03:59:24.123Z,62.80
2023-03-03T04:01:52.698Z,63.40
2023-03-03T04:04:22.444Z,65.00
2023-03-03T04:06:51.869Z,64.80
2023-03-03T04:09:20.417Z,63.50
2023-03-03T04:11:48.870Z,63.90
2023-03-03T04:14:16.955Z,63.10
2023-03-03T04:16:44.881Z,63.60
2023-03-03T04:19:13.613Z,63.00
2023-03-03T04:21:43.397Z,63.50
2023-03-03T04:24:12.595Z,62.80
2023-03-03T04:26:40.559Z,62.90
2023-03-03T04:29:09.843Z,63.20
2023-03-03T04:31:38.445Z,63.20
2023-03-03T04:34:09.192Z,62.40
2023-03-03T04:36:37.002Z,62.30
2023-03-03T04:39:05.431Z,62.70
2023-03-03T04:41:35.213Z,62.60
2023-03-03T04:44:03.137Z,62.00
2023-03-03T04:46:30.998Z,62.90
2023-03-03T04:48:59.829Z,62.50
2023-03-03T04:51:28.313Z,62.30
2023-03-03T04:53:56.504Z,61.70
2023-03-03T04:56:24.725Z,61.90
2023-03-03T04:58:53.910Z,61.90
2023-03-03T05:01:21.808Z,61.60
2023-03-03T05:03:49.975Z,61.60
2023-03-03T05:06:18.943Z,61.90
2023-03-03T05:08:46.941Z,61.80
2023-03-03T05:11:15.061Z,62.20
2023-03-03T05:13:43.034Z,62.40
2023-03-03T05:16:12.333Z,62.20
2023-03-03T05:18:40.219Z,62.20
2023-03-03T05:21:07.992Z,62.50
2023-03-03T05:23:35.871Z,62.50
2023-03-03T05:26:03.690Z,63.40
2023-03-03T05:28:31.872Z,62.90
2023-03-03T05:30:59.716Z,62.20
2023-03-03T05:33:28.882Z,62.00
2023-03-03T05:35:58.113Z,62.80
2023-03-03T05:38:26.568Z,62.60
2023-03-03T05:40:55.181Z,62.00
2023-03-03T05:43:23.014Z,62.80
2023-03-03T05:45:56.336Z,63.10
2023-03-03T05:48:24.211Z,62.90
2023-03-03T05:50:53.352Z,63.50
2023-03-03T05:53:21.170Z,63.10
2023-03-03T05:55:49.360Z,63.50
2023-03-03T05:58:17.175Z,64.10
2023-03-03T06:00:45.096Z,64.00
2023-03-03T06:03:12.969Z,63.40
2023-03-03T06:05:40.884Z,63.00
2023-03-03T06:08:10.134Z,63.00
2023-03-03T06:10:38.114Z,63.30
2023-03-03T06:13:08.268Z,63.50
2023-03-03T06:15:36.168Z,62.80
2023-03-03T06:18:04.175Z,62.70
2023-03-03T06:20:33.028Z,62.30
2023-03-03T06:23:00.839Z,62.40
2023-03-03T06:25:29.971Z,63.20
2023-03-03T06:27:58.044Z,62.70
2023-03-03T06:30:26.954Z,62.70
2023-03-03T06:32:54.810Z,62.30
2023-03-03T06:35:22.632Z,62.60
2023-03-03T06:37:51.419Z,62.00
2023-03-03T06:40:19.419Z,61.60
2023-03-03T06:42:48.640Z,61.30
2023-03-03T06:45:16.671Z,62.90
2023-03-03T06:47:44.458Z,65.30
2023-03-03T06:50:13.348Z,69.20
2023-03-03T06:52:41.148Z,71.00
2023-03-03T06:55:14.547Z,69.80
2023-03-03T06:57:42.463Z,69.70
2023-03-03T07:00:20.782Z,67.90
2023-03-03T07:02:51.424Z,66.70
2023-03-03T07:05:19.625Z,66.80
2023-03-03T07:07:47.395Z,65.20
2023-03-03T07:10:23.235Z,65.80
2023-03-03T07:12:51.228Z,66.80
2023-03-03T07:15:24.147Z,66.80
2023-03-03T07:17:58.057Z,65.50
2023-03-03T07:20:33.240Z,65.00
2023-03-03T07:23:01.835Z,64.00
2023-03-03T07:25:35.289Z,63.40
2023-03-03T07:28:17.412Z,64.30
2023-03-03T07:30:46.632Z,63.80
2023-03-03T07:33:23.723Z,63.70
2023-03-03T07:35:51.590Z,63.80
2023-03-03T07:38:26.332Z,64.60
2023-03-03T07:40:55.733Z,64.40
2023-03-03T07:43:35.845Z,63.10
2023-03-03T07:46:28.716Z,62.30
2023-03-03T07:48:58.168Z,68.10
2023-03-03T07:51:28.040Z,66.80
2023-03-03T07:54:11.980Z,65.70
2023-03-03T07:56:39.809Z,64.90
2023-03-03T07:59:21.595Z,63.90
2023-03-03T08:01:53.394Z,63.90
2023-03-03T08:04:24.968Z,63.30
2023-03-03T08:06:55.780Z,63.20
2023-03-03T08:09:38.879Z,62.80
2023-03-03T08:12:28.419Z,63.10
2023-03-03T08:14:57.644Z,62.70
2023-03-03T08:17:37.643Z,65.30
2023-03-03T08:20:25.247Z,63.50
2023-03-03T08:22:53.015Z,63.30
2023-03-03T08:25:20.777Z,62.60
2023-03-03T08:27:48.549Z,62.10
2023-03-03T08:30:16.690Z,61.90
2023-03-03T08:32:45.902Z,62.10
2023-03-03T08:35:13.757Z,62.00
2023-03-03T08:37:41.525Z,61.90
2023-03-03T08:40:10.796Z,61.10
2023-03-03T08:42:38.582Z,61.50
2023-03-03T08:45:07.009Z,61.50
2023-03-03T08:47:34.941Z,61.20
2023-03-03T08:50:04.318Z,61.20
2023-03-03T08:52:32.300Z,60.50
2023-03-03T08:55:00.152Z,60.10
2023-03-03T08:57:27.970Z,61.20
2023-03-03T08:59:55.772Z,72.50
2023-03-03T09:02:23.656Z,88.20
2023-03-03T09:04:51.524Z,67.10
2023-03-03T09:07:20.828Z,67.00
2023-03-03T09:09:48.860Z,67.10
2023-03-03T09:12:19.166Z,67.90
2023-03-03T09:14:48.330Z,68.50
2023-03-03T09:17:35.209Z,67.10
2023-03-03T09:20:22.408Z,65.60
2023-03-03T09:22:53.466Z,65.20
2023-03-03T09:25:28.270Z,65.10
2023-03-03T09:27:56.409Z,64.90
2023-03-03T09:30:39.635Z,65.30
2023-03-03T09:33:30.430Z,65.80
2023-03-03T09:36:05.008Z,65.60
2023-03-03T09:38:35.423Z,65.50
2023-03-03T09:41:28.457Z,65.70
2023-03-03T09:44:18.324Z,60.70
2023-03-03T09:46:54.668Z,57.50
2023-03-03T09:49:31.777Z,57.50
2023-03-03T09:52:22.521Z,57.80
2023-03-03T09:55:00.104Z,57.80
2023-03-03T09:57:37.552Z,57.70
2023-03-03T10:00:24.077Z,57.60
2023-03-03T10:03:09.781Z,57.60
2023-03-03T10:05:48.686Z,57.60
2023-03-03T10:08:48.262Z,57.60
2023-03-03T10:11:24.753Z,57.60
2023-03-03T10:14:09.190Z,57.70
2023-03-03T10:16:50.726Z,57.60
2023-03-03T10:19:35.797Z,57.80
2023-03-03T10:22:28.474Z,57.70
2023-03-03T10:25:09.531Z,57.70
2023-03-03T10:27:58.961Z,57.70
2023-03-03T10:30:41.086Z,57.70
2023-03-03T10:33:19.838Z,57.70
2023-03-03T10:36:07.709Z,57.60
2023-03-03T10:39:03.730Z,57.60
2023-03-03T10:41:53.423Z,57.70
2023-03-03T10:45:00.246Z,57.70
2023-03-03T10:47:40.406Z,57.70
2023-03-03T10:50:16.752Z,57.60
2023-03-03T10:52:50.217Z,57.70
2023-03-03T10:55:39.530Z,57.70
2023-03-03T10:58:26.712Z,58.10
2023-03-03T11:01:04.470Z,58.10
2023-03-03T11:04:10.459Z,58.00
2023-03-03T11:06:46.183Z,57.90
2023-03-03T11:09:26.839Z,57.90
2023-03-03T11:11:59.956Z,58.00
2023-03-03T11:14:32.821Z,58.10
2023-03-03T11:17:11.111Z,58.10
2023-03-03T11:19:54.102Z,58.00
2023-03-03T11:22:34.266Z,58.20
2023-03-03T11:25:12.176Z,58.20
2023-03-03T11:28:01.558Z,58.70
2023-03-03T11:30:37.291Z,58.40
2023-03-03T11:33:10.745Z,58.60
2023-03-03T11:35:47.484Z,58.50
2023-03-03T11:38:37.527Z,58.70
2023-03-03T11:41:12.866Z,58.70
2023-03-03T11:43:45.738Z,58.90
2023-03-03T11:46:17.957Z,59.10
2023-03-03T11:48:55.317Z,59.30
2023-03-03T11:51:42.027Z,59.00
2023-03-03T11:54:15.164Z,58.40
2023-03-03T11:56:44.780Z,58.70
2023-03-03T11:59:30.071Z,59.00
2023-03-03T12:02:00.960Z,59.40
2023-03-03T12:04:35.082Z,60.50
2023-03-03T12:07:23.869Z,60.40
2023-03-03T12:10:02.103Z,60.00
2023-03-03T12:12:35.760Z,60.30
2023-03-03T12:15:15.589Z,60.30
2023-03-03T12:17:58.592Z,60.40
2023-03-03T12:20:33.485Z,60.60
2023-03-03T12:23:14.649Z,60.60
2023-03-03T12:25:45.686Z,63.20
2023-03-03T12:28:20.360Z,64.10
2023-03-03T12:31:09.035Z,64.80
2023-03-03T12:33:54.110Z,65.40
2023-03-03T12:36:37.746Z,65.50
2023-03-03T12:39:34.074Z,65.70
2023-03-03T12:42:11.385Z,66.10
2023-03-03T12:44:45.097Z,66.00
2023-03-03T12:47:19.900Z,66.30
2023-03-03T12:50:07.457Z,66.70
2023-03-03T12:52:46.914Z,67.30
2023-03-03T12:55:26.056Z,66.90
2023-03-03T12:58:03.943Z,67.10
2023-03-03T13:00:44.496Z,67.10
2023-03-03T13:03:22.978Z,67.30
2023-03-03T13:06:01.634Z,67.40
2023-03-03T13:08:46.013Z,67.20
2023-03-03T13:11:36.805Z,67.50
2023-03-03T13:14:16.685Z,67.40
2023-03-03T13:16:49.010Z,68.10
2023-03-03T13:19:21.918Z,68.20
2023-03-03T13:21:55.775Z,69.20
2023-03-03T13:24:30.284Z,68.90
2023-03-03T13:27:05.543Z,68.90
2023-03-03T13:29:38.561Z,68.90
2023-03-03T13:32:13.751Z,69.20
2023-03-03T13:34:50.512Z,69.20
2023-03-03T13:37:23.381Z,69.20
2023-03-03T13:39:57.540Z,69.10
2023-03-03T13:42:33.555Z,69.00
2023-03-03T13:45:04.165Z,69.60
2023-03-03T13:47:37.109Z,69.30
2023-03-03T13:50:19.371Z,69.40
2023-03-03T13:52:59.247Z,69.30
2023-03-03T13:55:33.320Z,69.80
2023-03-03T13:58:14.400Z,70.00
2023-03-03T14:00:55.894Z,69.90
2023-03-03T14:03:59.129Z,69.80
2023-03-03T14:06:29.280Z,69.90
2023-03-03T14:09:08.958Z,70.30
2023-03-03T14:11:43.965Z,70.40
2023-03-03T14:14:24.482Z,70.20
2023-03-03T14:16:57.011Z,69.90
2023-03-03T14:19:30.828Z,70.30
2023-03-03T14:22:07.221Z,70.50
2023-03-03T14:25:01.224Z,70.50
2023-03-03T14:27:35.209Z,70.70
2023-03-03T14:30:28.335Z,71.20
2023-03-03T14:33:06.849Z,71.20
2023-03-03T14:35:36.844Z,71.20
2023-03-03T14:38:11.185Z,71.60
2023-03-03T14:40:42.919Z,71.80
2023-03-03T14:43:25.724Z,71.90
2023-03-03T14:45:56.454Z,71.50
2023-03-03T14:48:26.207Z,71.50
2023-03-03T14:50:58.293Z,71.90
2023-03-03T14:53:35.128Z,72.00
2023-03-03T14:56:24.789Z,71.30
2023-03-03T14:58:55.147Z,71.50
2023-03-03T15:01:31.926Z,71.60
2023-03-03T15:04:01.624Z,71.70
2023-03-03T15:06:38.479Z,71.80
2023-03-03T15:09:33.751Z,71.90
2023-03-03T15:12:02.846Z,71.50
2023-03-03T15:14:33.800Z,71.90
2023-03-03T15:17:27.470Z,71.70
2023-03-03T15:20:14.667Z,71.30
2023-03-03T15:22:49.728Z,71.40
2023-03-03T15:25:41.917Z,71.20
2023-03-03T15:28:25.915Z,71.10
2023-03-03T15:31:02.383Z,70.80
2023-03-03T15:33:38.537Z,71.00
2023-03-03T15:36:12.080Z,71.10
2023-03-03T15:38:51.077Z,70.90
2023-03-03T15:41:32.112Z,70.90
2023-03-03T15:44:12.789Z,70.80
2023-03-03T15:46:54.862Z,70.60
2023-03-03T15:49:55.439Z,71.00
2023-03-03T15:52:38.588Z,70.90
2023-03-03T15:55:17.316Z,71.00
2023-03-03T15:57:58.272Z,71.60
2023-03-03T16:00:36.880Z,70.50
2023-03-03T16:03:13.320Z,70.50
2023-03-03T16:05:50.613Z,70.20
2023-03-03T16:08:23.403Z,70.50
2023-03-03T16:11:03.608Z,70.10
2023-03-03T16:13:46.903Z,70.20
2023-03-03T16:16:26.380Z,70.20
2023-03-03T16:19:05.885Z,70.20
2023-03-03T16:21:53.213Z,70.20
2023-03-03T16:24:29.037Z,70.00
2023-03-03T16:27:03.685Z,70.00
2023-03-03T16:29:44.828Z,70.90
2023-03-03T16:32:23.465Z,70.00
2023-03-03T16:34:58.034Z,69.90
2023-03-03T16:37:32.202Z,69.80
2023-03-03T16:40:11.976Z,70.10
2023-03-03T16:42:39.757Z,70.20
2023-03-03T16:45:21.380Z,70.80
2023-03-03T16:48:03.568Z,70.30
2023-03-03T16:50:40.836Z,70.20
2023-03-03T16:53:19.724Z,70.50
2023-03-03T16:56:01.885Z,71.00
2023-03-03T16:58:42.752Z,71.80
2023-03-03T17:01:22.322Z,72.20
2023-03-03T17:04:00.621Z,72.20
2023-03-03T17:06:40.897Z,72.30
2023-03-03T17:09:36.685Z,72.40
2023-03-03T17:12:15.239Z,72.80
2023-03-03T17:15:08.331Z,72.80
2023-03-03T17:17:46.950Z,73.00
2023-03-03T17:20:30.898Z,73.30
2023-03-03T17:23:34.671Z,73.60
2023-03-03T17:26:15.280Z,73.60
2023-03-03T17:28:54.032Z,73.50
2023-03-03T17:31:28.439Z,72.80
2023-03-03T17:34:09.897Z,72.80
2023-03-03T17:36:48.809Z,73.00
2023-03-03T17:39:49.090Z,73.10
2023-03-03T17:42:24.570Z,73.80
2023-03-03T17:45:01.528Z,73.90
2023-03-03T17:47:41.813Z,73.60
2023-03-03T17:50:25.073Z,73.60
2023-03-03T17:53:18.826Z,73.50
2023-03-03T17:56:02.885Z,73.70
2023-03-03T17:59:10.351Z,73.40
2023-03-03T18:01:55.050Z,73.50
2023-03-03T18:04:51.658Z,73.60
2023-03-03T18:07:33.809Z,73.80
2023-03-03T18:10:32.465Z,74.20
2023-03-03T18:13:10.006Z,74.40
2023-03-03T18:16:10.821Z,74.90
2023-03-03T18:19:04.295Z,74.40
2023-03-03T18:21:38.567Z,74.60
2023-03-03T18:24:27.706Z,74.90
2023-03-03T18:26:56.699Z,74.80
2023-03-03T18:29:27.759Z,74.90
2023-03-03T18:32:17.086Z,75.10
2023-03-03T18:34:45.162Z,75.00
2023-03-03T18:41:32.776Z,74.70
2023-03-03T18:44:03.804Z,75.50
2023-03-03T18:46:53.246Z,75.20
2023-03-03T18:49:52.406Z,74.90
2023-03-03T18:52:23.640Z,75.10
2023-03-03T18:55:26.056Z,75.70
2023-03-03T18:58:29.588Z,75.40
2023-03-03T19:01:00.485Z,75.50
2023-03-03T19:03:33.281Z,75.90
2023-03-03T19:06:03.363Z,75.90
2023-03-03T19:08:45.591Z,75.80
2023-03-03T19:11:34.429Z,75.70
2023-03-03T19:14:25.499Z,75.60
2023-03-03T19:16:54.639Z,75.60
2023-03-03T19:19:25.132Z,75.80
2023-03-03T19:22:23.049Z,75.40
2023-03-03T19:25:18.441Z,74.90
2023-03-03T19:27:55.749Z,75.10
2023-03-03T19:30:43.102Z,74.90
2023-03-03T19:33:38.323Z,74.60
2023-03-03T19:36:29.190Z,74.70
2023-03-03T19:39:09.588Z,75.00
2023-03-03T19:41:52.307Z,75.30
2023-03-03T19:44:33.822Z,75.30
2023-03-03T19:47:05.271Z,75.70
2023-03-03T19:49:53.964Z,75.90
2023-03-03T19:52:31.254Z,75.70
2023-03-03T19:55:16.709Z,75.70
2023-03-03T19:57:51.469Z,75.70
2023-03-03T20:00:25.418Z,75.80
2023-03-03T20:03:22.797Z,76.00
2023-03-03T20:05:57.776Z,75.90
2023-03-03T20:08:31.584Z,76.00
2023-03-03T20:11:06.179Z,75.80
2023-03-03T20:13:48.245Z,75.90
2023-03-03T20:16:28.830Z,75.80
2023-03-03T20:19:20.720Z,75.80
2023-03-03T20:21:58.920Z,75.70
2023-03-03T20:25:08.404Z,75.90
2023-03-03T20:27:47.573Z,75.40
2023-03-03T20:30:31.129Z,75.70
2023-03-03T20:33:20.038Z,75.70
2023-03-03T20:36:00.743Z,75.70
2023-03-03T20:38:34.037Z,75.70
2023-03-03T20:41:10.350Z,75.90
2023-03-03T20:43:53.033Z,75.80
2023-03-03T20:46:25.713Z,75.80
2023-03-03T20:49:17.254Z,76.10
2023-03-03T20:51:54.406Z,76.10
2023-03-03T20:54:33.006Z,76.10
2023-03-03T20:57:08.223Z,75.90
2023-03-03T20:59:44.240Z,75.90
2023-03-03T21:02:20.802Z,75.80
2023-03-03T21:05:09.573Z,75.60
2023-03-03T21:07:40.930Z,75.80
2023-03-03T21:10:15.178Z,76.00
2023-03-03T21:12:43.221Z,75.80
2023-03-03T21:15:26.126Z,76.30
2023-03-03T21:17:55.047Z,76.20
2023-03-03T21:20:29.652Z,76.60
2023-03-03T21:22:58.687Z,76.30
2023-03-03T21:25:46.928Z,77.10
2023-03-03T21:28:20.251Z,76.90
2023-03-03T21:31:04.021Z,77.40
2023-03-03T21:33:56.264Z,77.30
2023-03-03T21:36:25.564Z,77.20
2023-03-03T21:38:54.829Z,77.60
2023-03-03T21:41:22.744Z,77.60
2023-03-03T21:43:52.355Z,77.80
2023-03-03T21:46:23.003Z,77.70
2023-03-03T21:48:51.264Z,77.60
2023-03-03T21:51:20.309Z,77.80
2023-03-03T21:53:48.150Z,78.10
2023-03-03T21:56:15.958Z,78.60
2023-03-03T21:58:44.046Z,78.80
2023-03-03T22:01:11.974Z,78.70
2023-03-03T22:03:41.229Z,78.60
2023-03-03T22:06:09.214Z,78.30
2023-03-03T22:08:37.069Z,79.00
2023-03-03T22:11:05.617Z,78.60
2023-03-03T22:13:33.504Z,78.50
2023-03-03T22:16:01.308Z,79.00
2023-03-03T22:18:29.125Z,79.30
2023-03-03T22:20:58.223Z,79.50
2023-03-03T22:23:26.488Z,79.40
2023-03-03T22:25:54.271Z,79.70
2023-03-03T22:28:22.224Z,80.00
2023-03-03T22:30:50.110Z,80.30
2023-03-03T22:33:18.059Z,80.60
2023-03-03T22:35:45.904Z,80.40
2023-03-03T22:38:15.302Z,80.70
2023-03-03T22:40:43.522Z,81.00
2023-03-03T22:43:11.625Z,81.30
2023-03-03T22:45:39.389Z,81.60
2023-03-03T22:48:07.793Z,81.90
2023-03-03T22:50:39.380Z,82.50
2023-03-03T22:53:07.303Z,81.90
2023-03-03T22:55:37.184Z,82.20
2023-03-03T22:58:07.453Z,82.40
2023-03-03T23:00:38.226Z,82.40
2023-03-03T23:03:06.465Z,82.30
2023-03-03T23:05:35.651Z,82.80
2023-03-03T23:08:03.783Z,83.10
2023-03-03T23:10:31.680Z,82.90
2023-03-03T23:13:00.808Z,83.00
2023-03-03T23:15:29.195Z,83.10
2023-03-03T23:17:57.074Z,83.10
2023-03-03T23:20:26.794Z,82.90
2023-03-03T23:22:55.245Z,82.90
2023-03-03T23:25:23.895Z,82.80
2023-03-03T23:27:52.562Z,83.00
2023-03-03T23:30:23.440Z,83.20
2023-03-03T23:32:51.515Z,83.10
2023-03-03T23:35:19.993Z,83.40
2023-03-03T23:37:48.089Z,83.50
2023-03-03T23:40:17.086Z,83.50
2023-03-03T23:42:45.117Z,83.50
2023-03-03T23:45:14.127Z,83.30
2023-03-03T23:47:43.302Z,83.30
2023-03-03T23:50:13.640Z,83.50
2023-03-03T23:52:41.741Z,82.80
2023-03-03T23:55:10.520Z,82.90
2023-03-03T23:57:38.352Z,82.90
